Time;durP1;ratioP1;P1;durP2;ratioP2;P2;SDS_P1;SDS_P2;PMS_P1;PMS_P2;Temp;Humidity;BMP_temperature;BMP_pressure;BME280_temperature;BME280_humidity;BME280_pressure;Samples;Min_cycle;Max_cycle;Signal;HPM_P1;HPM_P2
2023/04/22 00:01:28;;;;;;;6.35;2.22;;;;;;;15.17;56.11;98548.91;5016782;28;20049;-77
2023/04/22 00:03:54;;;;;;;5.97;2.30;;;;;;;15.14;56.01;98549.19;4984355;28;20049;-76
2023/04/22 00:06:20;;;;;;;4.68;2.28;;;;;;;15.12;55.97;98540.66;5000244;28;20488;-76
2023/04/22 00:08:45;;;;;;;11.05;2.53;;;;;;;15.11;56.03;98539.81;5016771;28;20108;-78
2023/04/22 00:11:11;;;;;;;6.93;2.22;;;;;;;15.09;56.06;98540.94;5016401;28;20048;-76
2023/04/22 00:13:36;;;;;;;5.53;1.80;;;;;;;15.04;55.98;98530.03;5016247;28;20068;-76
2023/04/22 00:16:05;;;;;;;3.75;1.83;;;;;;;15.04;55.88;98530.88;5016272;28;20033;-76
2023/04/22 00:18:32;;;;;;;4.78;2.40;;;;;;;15.03;56.04;98526.59;4983040;28;20038;-76
2023/04/22 00:20:58;;;;;;;6.07;2.27;;;;;;;15.00;55.96;98525.06;5000837;28;20120;-75
2023/04/22 00:23:23;;;;;;;6.97;2.00;;;;;;;15.00;56.11;98526.88;5015955;28;20292;-76
2023/04/22 00:25:49;;;;;;;8.48;2.22;;;;;;;15.00;55.88;98529.50;5016627;28;20179;-77
2023/04/22 00:28:15;;;;;;;5.07;2.40;;;;;;;15.00;56.05;98525.06;4982984;28;20115;-78
2023/04/22 00:30:40;;;;;;;6.40;2.00;;;;;;;14.98;55.93;98526.22;5016844;28;20480;-77
2023/04/22 00:33:06;;;;;;;4.88;2.13;;;;;;;14.95;56.01;98524.72;4999872;28;20044;-77
2023/04/22 00:35:31;;;;;;;5.72;2.08;;;;;;;14.89;55.91;98516.59;5000176;28;20519;-76
2023/04/22 00:37:57;;;;;;;4.78;2.00;;;;;;;14.91;55.96;98526.00;5016366;28;20072;-76
2023/04/22 00:40:22;;;;;;;7.97;2.35;;;;;;;14.86;55.95;98522.97;5015089;28;20060;-76
2023/04/22 00:42:48;;;;;;;4.38;2.13;;;;;;;14.85;56.00;98523.97;5016285;28;20049;-76
2023/04/22 00:45:16;;;;;;;7.68;2.17;;;;;;;14.82;55.89;98529.53;5015569;28;20029;-76
2023/04/22 00:47:43;;;;;;;7.35;2.10;;;;;;;14.81;55.87;98533.94;5000045;28;20041;-76
2023/04/22 00:50:08;;;;;;;8.43;2.20;;;;;;;14.79;55.65;98533.25;4999916;28;20034;-76
2023/04/22 00:52:34;;;;;;;5.95;2.13;;;;;;;14.77;55.80;98532.59;4999843;28;20041;-76
2023/04/22 00:54:59;;;;;;;6.18;2.20;;;;;;;14.70;55.79;98528.91;4999422;28;20394;-76
2023/04/22 00:57:25;;;;;;;8.48;1.98;;;;;;;14.70;55.73;98536.78;4999616;28;20515;-76
2023/04/22 00:59:51;;;;;;;10.88;2.63;;;;;;;14.66;55.66;98535.44;4982982;28;20033;-76
2023/04/22 01:02:17;;;;;;;8.85;2.30;;;;;;;14.67;55.72;98538.88;4999164;28;20025;-77
2023/04/22 01:04:42;;;;;;;5.15;1.85;;;;;;;14.62;55.97;98534.88;4982359;28;20037;-76
2023/04/22 01:07:08;;;;;;;4.05;1.90;;;;;;;14.62;55.76;98542.75;4998599;28;20516;-75
2023/04/22 01:09:33;;;;;;;5.55;2.10;;;;;;;14.57;55.95;98531.03;4999024;28;20037;-76
2023/04/22 01:12:00;;;;;;;7.35;1.80;;;;;;;14.56;56.03;98535.44;5015499;28;20220;-76
2023/04/22 01:14:25;;;;;;;6.07;2.40;;;;;;;14.51;55.70;98527.19;4999698;28;20036;-76
2023/04/22 01:16:52;;;;;;;4.60;2.10;;;;;;;14.51;55.89;98540.31;4999280;28;20029;-75
2023/04/22 01:19:18;;;;;;;3.15;1.63;;;;;;;14.48;55.72;98535.34;4999813;28;20044;-75
2023/04/22 01:21:46;;;;;;;5.22;2.00;;;;;;;14.50;55.84;98536.06;4999104;28;20045;-76
2023/04/22 01:24:12;;;;;;;5.93;2.08;;;;;;;14.47;55.53;98534.53;5015673;28;20052;-76
2023/04/22 01:26:37;;;;;;;5.38;2.22;;;;;;;14.45;55.86;98528.63;4999038;28;20072;-76
2023/04/22 01:29:03;;;;;;;5.20;2.10;;;;;;;14.39;55.75;98521.31;4999079;28;20055;-76
2023/04/22 01:31:29;;;;;;;5.15;1.80;;;;;;;14.41;55.78;98527.25;4998986;28;20037;-75
2023/04/22 01:33:54;;;;;;;6.38;1.73;;;;;;;14.38;55.66;98524.91;5015108;28;20022;-76
2023/04/22 01:36:20;;;;;;;8.65;2.22;;;;;;;14.35;55.58;98519.13;4999147;28;20033;-76
2023/04/22 01:38:46;;;;;;;16.70;2.92;;;;;;;14.34;55.67;98523.53;4998920;28;20115;-76
2023/04/22 01:41:12;;;;;;;4.53;1.98;;;;;;;14.33;55.65;98519.28;5014845;28;20037;-76
2023/04/22 01:43:39;;;;;;;6.30;2.28;;;;;;;14.30;55.63;98527.44;4998674;28;20477;-76
2023/04/22 01:46:05;;;;;;;5.70;1.92;;;;;;;14.28;55.63;98526.78;4999149;28;20088;-76
2023/04/22 01:48:30;;;;;;;3.22;1.90;;;;;;;14.24;55.68;98523.59;4998736;28;20033;-76
2023/04/22 01:50:56;;;;;;;8.95;2.10;;;;;;;14.20;55.86;98509.13;5015035;28;20100;-76
2023/04/22 01:53:21;;;;;;;7.35;2.00;;;;;;;14.21;55.63;98512.56;5014757;28;20029;-76
2023/04/22 01:55:47;;;;;;;7.57;2.22;;;;;;;14.19;55.59;98504.84;4998477;28;20473;-76
2023/04/22 01:58:12;;;;;;;6.22;2.00;;;;;;;14.16;55.72;98505.13;5015028;28;20051;-76
2023/04/22 02:00:38;;;;;;;5.03;2.22;;;;;;;14.12;55.60;98498.50;4997270;28;20041;-76
2023/04/22 02:03:03;;;;;;;3.35;1.90;;;;;;;14.14;55.43;98500.97;4998809;28;20096;-76
2023/04/22 02:05:29;;;;;;;8.55;2.63;;;;;;;14.11;55.41;98494.25;4998127;28;20033;-77
2023/04/22 02:07:54;;;;;;;5.47;2.00;;;;;;;14.13;55.58;98501.97;5015121;28;20034;-76
2023/04/22 02:10:20;;;;;;;5.15;1.88;;;;;;;14.07;55.83;98496.34;4997895;28;20469;-77
2023/04/22 02:12:45;;;;;;;5.72;1.92;;;;;;;14.06;55.69;98489.44;5014521;28;20108;-76
2023/04/22 02:15:11;;;;;;;5.43;2.00;;;;;;;14.08;55.61;98497.97;4997804;28;20416;-76
2023/04/22 02:17:37;;;;;;;7.60;2.17;;;;;;;14.03;55.76;98484.47;4982100;28;20117;-77
2023/04/22 02:20:03;;;;;;;8.75;1.95;;;;;;;14.05;55.49;98486.94;4998255;28;20538;-76
2023/04/22 02:22:29;;;;;;;4.65;2.25;;;;;;;14.06;55.51;98488.59;4997780;28;20408;-77
2023/04/22 02:24:54;;;;;;;4.97;2.10;;;;;;;14.07;55.45;98490.25;4997730;28;20121;-76
2023/04/22 02:27:20;;;;;;;5.45;2.10;;;;;;;14.05;55.78;98495.63;5014260;28;20095;-76
2023/04/22 02:29:47;;;;;;;5.90;2.40;;;;;;;14.06;55.53;98492.06;5014618;28;20087;-76
2023/04/22 02:32:12;;;;;;;8.18;2.30;;;;;;;14.05;55.63;98494.81;5031774;28;20037;-76
2023/04/22 02:34:38;;;;;;;6.00;2.10;;;;;;;14.04;55.47;98496.63;5014500;28;20037;-76
2023/04/22 02:37:04;;;;;;;6.93;2.33;;;;;;;14.04;55.85;98498.41;4997333;28;20037;-76
2023/04/22 02:39:29;;;;;;;4.95;2.05;;;;;;;14.02;55.63;98490.66;4998267;28;20048;-77
2023/04/22 02:41:55;;;;;;;7.95;2.17;;;;;;;14.03;55.73;98497.59;5013220;28;20049;-76
2023/04/22 02:44:20;;;;;;;8.52;2.42;;;;;;;13.99;55.75;98498.03;4997832;28;20468;-75
2023/04/22 02:46:46;;;;;;;4.57;2.00;;;;;;;13.98;55.77;98512.94;5013595;28;20033;-76
2023/04/22 02:49:11;;;;;;;4.57;2.33;;;;;;;14.00;55.71;98511.00;5030756;28;20531;-76
2023/04/22 02:51:38;;;;;;;5.05;1.90;;;;;;;14.00;55.77;98511.00;5013932;28;20037;-76
2023/04/22 02:54:03;;;;;;;5.20;1.98;;;;;;;14.00;55.91;98515.44;4997174;28;20029;-76
2023/04/22 02:56:29;;;;;;;7.85;2.33;;;;;;;14.01;55.63;98517.06;4980339;28;20033;-76
2023/04/22 02:58:54;;;;;;;6.72;2.50;;;;;;;14.01;55.77;98514.44;4997563;28;20041;-76
2023/04/22 03:01:20;;;;;;;6.57;2.22;;;;;;;13.98;55.91;98512.09;5013387;28;20415;-76
2023/04/22 03:03:45;;;;;;;7.00;2.50;;;;;;;14.01;55.98;98523.16;4997768;28;20036;-76
2023/04/22 03:06:11;;;;;;;8.27;2.55;;;;;;;14.02;55.78;98523.97;4981662;28;20030;-76
2023/04/22 03:08:36;;;;;;;5.55;2.20;;;;;;;14.01;55.79;98520.53;5013852;28;20044;-76
2023/04/22 03:11:02;;;;;;;5.13;2.65;;;;;;;14.05;55.88;98527.13;4998322;28;20477;-75
2023/04/22 03:13:27;;;;;;;6.28;2.67;;;;;;;14.07;55.96;98525.22;5000735;28;20037;-76
2023/04/22 03:15:53;;;;;;;8.75;2.55;;;;;;;14.06;55.81;98523.53;5001693;28;20049;-77
2023/04/22 03:18:18;;;;;;;7.95;2.60;;;;;;;14.05;55.78;98518.44;4984587;28;20042;-76
2023/04/22 03:20:44;;;;;;;8.30;2.40;;;;;;;14.09;55.98;98517.19;4985383;28;20033;-78
2023/04/22 03:23:09;;;;;;;7.15;2.42;;;;;;;14.11;56.05;98520.50;4985387;28;20040;-70
2023/04/22 03:25:35;;;;;;;3.90;2.00;;;;;;;14.15;55.92;98518.38;5035841;28;20052;-72
2023/04/22 03:28:01;;;;;;;14.43;2.50;;;;;;;14.58;71.32;98514.28;5001997;28;20400;-72
2023/04/22 03:30:27;;;;;;;6.32;2.30;;;;;;;14.65;68.03;98520.63;5001699;28;20032;-72
2023/04/22 03:32:52;;;;;;;4.32;2.60;;;;;;;14.63;64.69;98515.53;5017671;28;20030;-73
2023/04/22 03:35:19;;;;;;;10.25;2.45;;;;;;;14.82;69.36;98529.53;4984945;28;20080;-72
2023/04/22 03:37:44;;;;;;;8.05;2.40;;;;;;;14.87;65.84;98532.53;5001679;28;20025;-79
2023/04/22 03:40:10;;;;;;;5.32;2.70;;;;;;;14.90;64.05;98537.47;5001418;28;20408;-81
2023/04/22 03:42:36;;;;;;;4.78;2.40;;;;;;;15.08;62.69;98545.34;5000775;28;20061;-79
2023/04/22 03:45:01;;;;;;;11.32;2.40;;;;;;;15.27;61.45;98541.75;5001095;28;20104;-79
2023/04/22 03:47:27;;;;;;;21.30;3.25;;;;;;;15.54;59.84;98553.97;4999664;28;20049;-78
2023/04/22 03:49:52;;;;;;;6.13;2.40;;;;;;;15.58;59.45;98549.22;5015804;28;20083;-76
2023/04/22 03:52:18;;;;;;;5.70;2.63;;;;;;;15.66;58.79;98558.97;5017552;28;20029;-76
2023/04/22 03:54:43;;;;;;;7.75;2.58;;;;;;;15.61;58.19;98548.91;4984457;28;20496;-76
2023/04/22 03:57:09;;;;;;;5.88;2.40;;;;;;;15.80;57.44;98552.38;5001420;28;20025;-76
2023/04/22 03:59:34;;;;;;;5.95;2.50;;;;;;;15.58;57.50;98551.84;5000454;28;20389;-78
2023/04/22 04:02:00;;;;;;;8.48;2.75;;;;;;;15.50;57.33;98552.63;4984357;28;20507;-74
2023/04/22 04:04:27;;;;;;;12.18;2.97;;;;;;;15.45;57.46;98556.66;5034633;28;20029;-71
2023/04/22 04:06:54;;;;;;;5.75;2.65;;;;;;;15.47;61.28;98560.81;4998960;28;20038;-78
2023/04/22 04:09:19;;;;;;;8.40;2.40;;;;;;;15.44;59.48;98565.56;4983295;28;20551;-81
2023/04/22 04:11:45;;;;;;;8.52;3.03;;;;;;;15.35;59.12;98562.03;5016372;28;20034;-81
2023/04/22 04:14:10;;;;;;;6.60;2.03;;;;;;;15.36;58.76;98568.94;4984404;28;20041;-81
2023/04/22 04:16:36;;;;;;;7.13;2.75;;;;;;;15.30;58.51;98566.91;4999087;28;20045;-81
2023/04/22 04:19:02;;;;;;;4.40;2.47;;;;;;;15.28;57.99;98569.69;4999939;28;20488;-79
2023/04/22 04:21:28;;;;;;;5.03;2.88;;;;;;;15.27;58.04;98570.66;4998755;28;20128;-83
2023/04/22 04:23:53;;;;;;;4.40;2.40;;;;;;;15.22;57.93;98558.97;4998442;28;20033;-83
2023/04/22 04:26:19;;;;;;;6.43;2.60;;;;;;;15.24;57.63;98570.16;4983041;28;20125;-81
2023/04/22 04:28:46;;;;;;;8.23;2.47;;;;;;;15.22;57.50;98569.47;4983044;28;20489;-80
2023/04/22 04:31:11;;;;;;;7.22;2.40;;;;;;;15.18;57.45;98566.31;5015128;28;20064;-80
2023/04/22 04:33:37;;;;;;;5.82;2.38;;;;;;;15.20;57.33;98567.00;4997845;28;20037;-82
2023/04/22 04:36:03;;;;;;;5.95;2.60;;;;;;;15.23;57.25;98568.50;5015563;28;20029;-80
2023/04/22 04:38:29;;;;;;;6.70;2.45;;;;;;;15.23;57.02;98577.22;4999310;28;20105;-81
2023/04/22 04:40:55;;;;;;;7.40;2.47;;;;;;;15.24;56.97;98573.59;5015959;28;20488;-78
2023/04/22 04:43:24;;;;;;;6.07;2.70;;;;;;;15.24;56.89;98576.22;5015240;28;20486;-79
2023/04/22 04:45:52;;;;;;;6.03;2.30;;;;;;;15.24;56.71;98578.03;4999988;28;20462;-80
2023/04/22 04:48:23;;;;;;;3.72;2.22;;;;;;;15.27;56.63;98583.81;4998140;28;20025;-81
2023/04/22 04:50:52;;;;;;;4.68;2.33;;;;;;;15.28;56.59;98582.84;4983699;28;20044;-79
2023/04/22 04:53:18;;;;;;;7.05;2.63;;;;;;;15.27;56.43;98580.38;4999660;28;20033;-79
2023/04/22 04:55:44;;;;;;;5.68;2.28;;;;;;;15.32;56.57;98580.72;4999342;28;20086;-79
2023/04/22 04:58:09;;;;;;;8.32;2.42;;;;;;;15.32;56.34;98578.94;4998927;28;20041;-78
2023/04/22 05:00:35;;;;;;;6.43;2.47;;;;;;;15.30;56.41;98577.44;4999229;28;20079;-78
2023/04/22 05:03:00;;;;;;;5.95;2.40;;;;;;;15.34;56.40;98584.88;4982256;28;20068;-76
2023/04/22 05:05:26;;;;;;;11.15;2.63;;;;;;;15.35;56.22;98586.53;4982249;28;20091;-76
2023/04/22 05:07:52;;;;;;;3.97;2.40;;;;;;;15.37;56.17;98589.03;5003617;28;20493;-74
2023/04/22 05:10:18;;;;;;;5.97;2.38;;;;;;;15.38;55.98;98590.66;4995726;28;20027;-75
2023/04/22 05:12:45;;;;;;;8.18;2.47;;;;;;;15.42;55.94;98593.78;4962790;28;20032;-74
2023/04/22 05:15:10;;;;;;;17.60;2.50;;;;;;;15.40;55.98;98590.50;4978972;28;20038;-74
2023/04/22 05:17:36;;;;;;;5.97;2.50;;;;;;;15.47;55.81;98591.56;4978853;28;20048;-75
2023/04/22 05:20:02;;;;;;;7.82;2.78;;;;;;;15.53;55.77;98590.97;4978936;28;20485;-76
2023/04/22 05:22:28;;;;;;;6.20;2.33;;;;;;;15.61;55.83;98596.28;4979171;28;20040;-77
2023/04/22 05:24:53;;;;;;;6.93;2.78;;;;;;;15.67;55.26;98597.44;4979346;28;20033;-75
2023/04/22 05:27:19;;;;;;;4.38;2.55;;;;;;;15.81;54.79;98591.66;4995498;28;20462;-76
2023/04/22 05:29:45;;;;;;;5.88;2.30;;;;;;;15.91;54.76;98597.66;4978851;28;20033;-76
2023/04/22 05:32:10;;;;;;;7.90;2.60;;;;;;;16.02;54.66;98588.69;4962851;28;20425;-70
2023/04/22 05:34:36;;;;;;;5.15;1.88;;;;;;;16.41;65.42;98601.41;4999029;28;20060;-74
2023/04/22 05:37:02;;;;;;;11.70;1.90;;;;;;;16.70;63.95;98597.56;4978896;28;20034;-76
2023/04/22 05:39:28;;;;;;;7.18;1.92;;;;;;;16.85;61.48;98596.94;4978992;28;20038;-76
2023/04/22 05:41:53;;;;;;;9.60;2.20;;;;;;;17.02;59.71;98597.84;4978364;28;20117;-81
2023/04/22 05:44:19;;;;;;;5.13;2.40;;;;;;;17.18;58.29;98593.41;4962796;28;20057;-78
2023/04/22 05:46:44;;;;;;;17.88;3.42;;;;;;;17.36;57.25;98593.28;4962129;28;20088;-77
2023/04/22 05:49:10;;;;;;;9.20;3.38;;;;;;;17.60;56.17;98599.56;4994349;28;20512;-73
2023/04/22 05:51:35;;;;;;;7.22;4.10;;;;;;;17.80;55.01;98605.28;4978448;28;20038;-72
2023/04/22 05:54:01;;;;;;;9.57;3.90;;;;;;;17.99;53.94;98596.22;4961818;28;20038;-73
2023/04/22 05:56:26;;;;;;;5.75;3.95;;;;;;;18.15;53.50;98607.75;4978788;28;20030;-79
2023/04/22 05:58:52;;;;;;;9.88;4.65;;;;;;;18.25;53.04;98609.22;4962957;28;20044;-82
2023/04/22 06:01:17;;;;;;;9.95;4.90;;;;;;;18.33;52.42;98605.72;4979209;28;20394;-84
2023/04/22 06:03:43;;;;;;;8.90;4.30;;;;;;;18.45;51.89;98611.47;4976964;28;20128;-83
2023/04/22 06:06:11;;;;;;;9.18;3.97;;;;;;;18.61;54.40;98616.69;4964337;28;20034;-85
2023/04/22 06:08:36;;;;;;;14.13;4.28;;;;;;;18.83;52.52;98611.63;4995866;28;20046;-84
2023/04/22 06:11:03;;;;;;;8.52;4.50;;;;;;;19.02;51.55;98613.03;5002754;28;20033;-80
2023/04/22 06:13:29;;;;;;;10.60;4.30;;;;;;;19.43;50.20;98614.59;5002307;28;20041;-79
2023/04/22 06:15:55;;;;;;;15.63;4.65;;;;;;;19.70;48.96;98615.88;5018007;28;20032;-79
2023/04/22 06:18:21;;;;;;;8.80;4.55;;;;;;;19.93;48.35;98613.22;5016637;28;20037;-74
2023/04/22 06:20:47;;;;;;;11.18;4.70;;;;;;;20.32;47.11;98621.91;5017159;28;20044;-72
2023/04/22 06:23:12;;;;;;;9.85;4.88;;;;;;;20.70;46.03;98606.78;5051504;28;20029;-71
2023/04/22 06:25:38;;;;;;;15.40;5.55;;;;;;;20.81;44.84;98615.25;5017080;28;20400;-72
2023/04/22 06:28:03;;;;;;;14.57;4.75;;;;;;;21.72;42.55;98610.25;5017674;28;20033;-71
2023/04/22 06:30:29;;;;;;;12.60;4.70;;;;;;;21.84;43.25;98614.03;5017004;28;20031;-72
2023/04/22 06:32:54;;;;;;;11.18;4.32;;;;;;;23.61;39.63;98617.06;5001492;28;20424;-73
2023/04/22 06:35:20;;;;;;;9.77;4.57;;;;;;;24.77;37.34;98614.03;4999969;28;20484;-72
2023/04/22 06:37:47;;;;;;;15.43;4.50;;;;;;;25.77;35.70;98616.09;5017669;28;20029;-71
2023/04/22 06:40:13;;;;;;;9.23;3.60;;;;;;;26.58;33.52;98616.16;5031892;28;20083;-71
2023/04/22 06:42:38;;;;;;;11.07;3.72;;;;;;;27.36;32.26;98623.41;5011995;28;20527;-72
2023/04/22 06:45:04;;;;;;;12.30;3.72;;;;;;;28.06;31.01;98624.56;5014485;28;20029;-73
2023/04/22 06:47:30;;;;;;;9.48;3.55;;;;;;;28.74;30.05;98624.16;5013125;28;20040;-72
2023/04/22 06:49:55;;;;;;;10.13;3.35;;;;;;;29.31;29.49;98624.16;5013600;28;20029;-71
2023/04/22 06:52:21;;;;;;;12.00;3.53;;;;;;;29.83;28.23;98619.66;5031439;28;20030;-74
2023/04/22 06:54:47;;;;;;;12.77;3.47;;;;;;;30.34;27.64;98623.06;5014081;28;20045;-72
2023/04/22 06:57:12;;;;;;;10.98;3.50;;;;;;;30.74;27.03;98623.88;4998139;28;20394;-72
2023/04/22 06:59:37;;;;;;;11.82;3.40;;;;;;;31.13;26.08;98618.38;5013761;28;20045;-72
2023/04/22 07:02:04;;;;;;;9.25;3.00;;;;;;;31.49;25.26;98624.94;5014210;28;20033;-73
2023/04/22 07:04:30;;;;;;;11.27;3.40;;;;;;;31.82;24.91;98623.06;4997479;28;20037;-71
2023/04/22 07:07:00;;;;;;;10.23;3.10;;;;;;;32.18;24.38;98623.31;4997224;28;20493;-72
2023/04/22 07:09:39;;;;;;;9.85;3.17;;;;;;;32.45;23.97;98631.28;4997009;28;20144;-74
2023/04/22 07:12:05;;;;;;;8.65;3.30;;;;;;;32.51;24.02;98625.91;4997492;28;20042;-72
2023/04/22 07:14:31;;;;;;;9.75;3.33;;;;;;;32.81;23.18;98631.47;4996530;28;20048;-73
2023/04/22 07:16:57;;;;;;;12.93;3.67;;;;;;;33.05;22.83;98625.59;4997293;28;20099;-71
2023/04/22 07:19:23;;;;;;;9.07;3.05;;;;;;;33.28;22.58;98628.88;5014222;28;20033;-71
2023/04/22 07:21:48;;;;;;;11.32;3.35;;;;;;;33.41;22.30;98625.63;5030602;28;20064;-72
2023/04/22 07:24:14;;;;;;;9.05;3.17;;;;;;;33.60;22.38;98631.31;4996446;28;20037;-70
2023/04/22 07:26:40;;;;;;;11.13;3.05;;;;;;;33.70;21.92;98628.66;4997445;28;20423;-70
2023/04/22 07:29:06;;;;;;;7.25;2.80;;;;;;;33.80;21.98;98630.53;5013546;28;20035;-74
2023/04/22 07:31:33;;;;;;;10.55;3.00;;;;;;;33.92;22.32;98634.84;5012962;28;20101;-71
2023/04/22 07:33:59;;;;;;;8.73;2.70;;;;;;;33.98;22.16;98636.47;5024168;28;20018;-71
2023/04/22 07:36:25;;;;;;;7.60;2.95;;;;;;;33.98;22.18;98641.88;4993575;28;20068;-71
2023/04/22 07:38:50;;;;;;;7.05;2.40;;;;;;;33.98;22.12;98636.47;4993761;28;20042;-72
2023/04/22 07:41:16;;;;;;;9.85;2.85;;;;;;;34.09;21.74;98648.91;4996174;28;20034;-71
2023/04/22 07:43:41;;;;;;;5.18;2.30;;;;;;;34.22;21.74;98642.09;4997381;28;20107;-72
2023/04/22 07:46:07;;;;;;;9.68;2.33;;;;;;;34.35;21.33;98646.97;5014116;28;20116;-70
2023/04/22 07:48:32;;;;;;;7.18;2.20;;;;;;;34.47;21.23;98652.06;5013537;28;20029;-72
2023/04/22 07:50:58;;;;;;;8.38;2.03;;;;;;;34.60;21.03;98650.66;4998050;28;20057;-71
2023/04/22 07:53:23;;;;;;;6.97;2.13;;;;;;;34.68;20.95;98655.53;5013476;28;20057;-72
2023/04/22 07:55:49;;;;;;;4.25;1.70;;;;;;;34.78;20.79;98652.81;5012704;28;20044;-71
2023/04/22 07:58:15;;;;;;;7.22;2.00;;;;;;;34.89;20.65;98648.16;5014324;28;20033;-71
2023/04/22 08:00:41;;;;;;;6.97;1.83;;;;;;;34.92;20.99;98647.59;4984796;28;20033;-72
2023/04/22 08:03:06;;;;;;;7.70;1.80;;;;;;;35.02;20.96;98654.84;5000246;28;20026;-71
2023/04/22 08:05:32;;;;;;;7.85;1.70;;;;;;;35.02;20.65;98649.44;5000680;28;20029;-70
2023/04/22 08:07:57;;;;;;;4.97;1.63;;;;;;;34.73;21.21;98658.22;4999663;28;20439;-72
2023/04/22 08:10:23;;;;;;;6.57;1.70;;;;;;;34.35;21.23;98648.88;5016250;28;20570;-71
2023/04/22 08:12:48;;;;;;;5.43;1.83;;;;;;;34.65;21.15;98644.41;4984037;28;20091;-72
2023/04/22 08:15:14;;;;;;;6.25;1.80;;;;;;;34.35;21.30;98648.88;4984289;28;20075;-71
2023/04/22 08:17:39;;;;;;;4.60;1.50;;;;;;;33.94;21.60;98646.22;5017131;28;20033;-72
2023/04/22 08:20:05;;;;;;;5.20;1.88;;;;;;;34.09;21.34;98654.31;4999618;28;20087;-72
2023/04/22 08:22:32;;;;;;;6.63;1.92;;;;;;;34.15;21.50;98639.69;4982247;28;20060;-72
2023/04/22 08:24:59;;;;;;;7.45;2.22;;;;;;;34.28;21.37;98641.03;5000152;28;20045;-72
2023/04/22 08:27:24;;;;;;;6.40;1.80;;;;;;;34.38;21.20;98638.31;5017236;28;20033;-71
2023/04/22 08:29:50;;;;;;;5.28;1.70;;;;;;;34.58;20.66;98642.00;5000224;28;20056;-71
2023/04/22 08:32:18;;;;;;;8.20;1.70;;;;;;;34.79;20.70;98642.75;5016274;28;20044;-71
2023/04/22 08:34:44;;;;;;;5.78;1.70;;;;;;;35.00;20.39;98648.06;5034657;28;20400;-70
2023/04/22 08:37:09;;;;;;;5.93;1.55;;;;;;;35.01;20.39;98652.41;4983330;28;20041;-71
2023/04/22 08:39:35;;;;;;;8.50;1.70;;;;;;;35.14;20.36;98647.19;4998918;28;20045;-71
2023/04/22 08:42:01;;;;;;;4.00;1.60;;;;;;;34.96;20.32;98640.53;5016481;28;20397;-71
2023/04/22 08:44:26;;;;;;;4.90;1.67;;;;;;;34.94;20.66;98642.69;5016216;28;20021;-72
2023/04/22 08:46:52;;;;;;;4.70;1.40;;;;;;;34.86;20.74;98637.84;5016025;28;20050;-73
2023/04/22 08:49:17;;;;;;;3.90;1.50;;;;;;;34.63;20.93;98630.34;5015037;28;20037;-71
2023/04/22 08:51:43;;;;;;;5.70;1.58;;;;;;;34.59;20.31;98630.09;5016656;28;20029;-71
2023/04/22 08:54:09;;;;;;;6.53;1.80;;;;;;;34.49;20.27;98635.53;5000000;28;20079;-72
2023/04/22 08:56:35;;;;;;;7.32;1.70;;;;;;;34.34;20.39;98636.41;4983071;28;20041;-71
2023/04/22 08:59:02;;;;;;;10.35;1.88;;;;;;;34.21;20.62;98629.66;4983062;28;20029;-71
2023/04/22 09:01:27;;;;;;;5.60;1.60;;;;;;;34.07;20.75;98632.13;4999787;28;20030;-72
2023/04/22 09:03:53;;;;;;;7.95;1.60;;;;;;;33.94;21.00;98630.78;5015341;28;20036;-71
2023/04/22 09:06:18;;;;;;;7.55;1.75;;;;;;;33.86;20.99;98626.75;4999483;28;20038;-71
2023/04/22 09:08:45;;;;;;;4.80;1.30;;;;;;;33.63;21.03;98636.19;4998894;28;20036;-71
2023/04/22 09:11:10;;;;;;;7.07;1.65;;;;;;;33.36;21.32;98633.75;4999415;28;20494;-72
2023/04/22 09:13:36;;;;;;;8.60;1.80;;;;;;;33.18;21.17;98643.22;4998514;28;20049;-72
2023/04/22 09:16:02;;;;;;;8.68;1.70;;;;;;;32.75;21.16;98631.69;4983950;28;20033;-72
2023/04/22 09:18:27;;;;;;;5.68;1.60;;;;;;;32.77;21.29;98626.84;4998792;28;20404;-73
2023/04/22 09:20:54;;;;;;;5.75;1.80;;;;;;;32.22;21.85;98626.31;4982782;28;20485;-72
2023/04/22 09:23:20;;;;;;;7.33;1.93;;;;;;;31.72;22.41;98628.38;4982742;28;20124;-72
2023/04/22 09:25:45;;;;;;;6.50;1.60;;;;;;;31.39;22.86;98633.75;5015870;28;20033;-71
2023/04/22 09:28:11;;;;;;;4.95;1.77;;;;;;;31.05;23.44;98616.16;4999807;28;20033;-73
2023/04/22 09:30:37;;;;;;;6.82;1.80;;;;;;;30.74;24.02;98619.31;5000157;28;20033;-72
2023/04/22 09:33:04;;;;;;;7.32;1.70;;;;;;;30.67;24.30;98611.41;5033048;28;20432;-71
2023/04/22 09:35:30;;;;;;;5.88;1.90;;;;;;;30.55;24.33;98624.16;4983153;28;20025;-72
2023/04/22 09:37:57;;;;;;;6.80;1.83;;;;;;;30.61;24.28;98616.97;5033200;28;20038;-71
2023/04/22 09:40:22;;;;;;;5.93;2.00;;;;;;;30.55;24.54;98613.41;4982708;28;20075;-71
2023/04/22 09:42:49;;;;;;;5.13;1.70;;;;;;;30.48;24.47;98616.28;4998705;28;20045;-72
2023/04/22 09:45:29;;;;;;;7.05;1.90;;;;;;;30.41;24.74;98612.16;4982358;28;20389;-71
2023/04/22 09:47:55;;;;;;;7.90;1.80;;;;;;;30.18;24.61;98611.28;4999748;28;20033;-71
2023/04/22 09:50:23;;;;;;;10.20;1.80;;;;;;;30.02;24.59;98612.16;4998747;28;20171;-72
2023/04/22 09:52:57;;;;;;;6.75;1.80;;;;;;;29.95;24.74;98613.13;4998615;28;20546;-72
2023/04/22 09:55:23;;;;;;;7.82;1.90;;;;;;;29.97;25.14;98604.81;4998677;28;20041;-72
2023/04/22 09:57:55;;;;;;;6.55;1.67;;;;;;;29.84;25.27;98608.66;5015113;28;20104;-71
2023/04/22 10:00:23;;;;;;;6.95;2.00;;;;;;;29.56;25.20;98601.47;4999126;28;20171;-71
2023/04/22 10:02:49;;;;;;;7.22;1.90;;;;;;;29.59;25.39;98598.28;5032080;28;20030;-72
2023/04/22 10:05:14;;;;;;;3.65;1.73;;;;;;;29.54;25.48;98596.34;5014726;28;20480;-71
2023/04/22 10:07:41;;;;;;;6.43;1.70;;;;;;;29.42;25.55;98609.84;4981850;28;20471;-85
2023/04/22 10:10:07;;;;;;;5.70;1.85;;;;;;;29.32;25.28;98604.31;4982569;28;20079;-71
2023/04/22 10:12:36;;;;;;;6.43;1.60;;;;;;;29.32;24.98;98593.56;4998211;28;20045;-72
2023/04/22 10:15:03;;;;;;;6.55;1.83;;;;;;;29.29;25.00;98585.13;4998533;28;20065;-72
2023/04/22 10:17:33;;;;;;;6.68;1.80;;;;;;;29.26;25.12;98596.41;5031955;28;20057;-72
2023/04/22 10:20:03;;;;;;;11.15;2.10;;;;;;;29.21;25.13;98571.06;4998548;28;20044;-72
2023/04/22 10:22:30;;;;;;;13.40;2.15;;;;;;;29.13;24.96;98570.59;5014153;28;20025;-73
2023/04/22 10:24:57;;;;;;;7.60;2.00;;;;;;;29.08;25.36;98575.88;4998124;28;20115;-72
2023/04/22 10:27:22;;;;;;;6.88;1.80;;;;;;;29.03;24.85;98568.53;5032131;28;20113;-72
2023/04/22 10:29:48;;;;;;;5.80;1.90;;;;;;;28.98;24.50;98566.56;4981287;28;20144;-72
2023/04/22 10:32:16;;;;;;;6.90;2.08;;;;;;;28.69;24.81;98571.97;5013056;28;20088;-72
2023/04/22 10:34:42;;;;;;;6.10;1.75;;;;;;;28.52;24.69;98576.44;5031993;28;20068;-71
2023/04/22 10:37:09;;;;;;;5.65;1.77;;;;;;;28.29;24.91;98561.19;4998185;28;20477;-73
2023/04/22 10:39:35;;;;;;;6.03;1.98;;;;;;;28.02;24.88;98560.88;4981596;28;20036;-71
2023/04/22 10:42:08;;;;;;;12.32;2.40;;;;;;;27.70;25.26;98577.31;4998187;28;20053;-72
2023/04/22 10:44:53;;;;;;;4.70;1.77;;;;;;;27.41;25.45;98572.59;4999046;28;20104;-71
2023/04/22 10:47:35;;;;;;;6.95;1.80;;;;;;;27.20;25.73;98575.78;4998450;28;20060;-74
2023/04/22 10:50:26;;;;;;;9.48;2.03;;;;;;;26.89;26.43;98585.72;5014646;28;20465;-74
2023/04/22 10:52:55;;;;;;;4.47;1.80;;;;;;;26.71;26.36;98584.72;5013803;28;20478;-72
2023/04/22 10:55:21;;;;;;;6.75;1.80;;;;;;;26.48;26.93;98579.19;4997876;28;20471;-73
2023/04/22 10:57:47;;;;;;;6.93;2.08;;;;;;;26.22;27.00;98573.13;4981421;28;20124;-74
2023/04/22 11:00:20;;;;;;;13.55;2.40;;;;;;;26.03;26.71;98580.31;5014555;28;20032;-73
2023/04/22 11:03:07;;;;;;;9.02;1.73;;;;;;;25.83;27.12;98585.81;4997122;28;20136;-73
2023/04/22 11:05:34;;;;;;;10.15;2.17;;;;;;;25.57;27.62;98585.00;5016378;28;20057;-73
2023/04/22 11:08:22;;;;;;;7.38;1.90;;;;;;;25.36;28.05;98590.72;4981610;28;20480;-74
2023/04/22 11:10:49;;;;;;;6.60;2.00;;;;;;;25.14;28.18;98598.22;4999444;28;20022;-73
2023/04/22 11:13:16;;;;;;;5.72;1.98;;;;;;;24.97;28.41;98612.09;5013692;28;20124;-72
2023/04/22 11:15:44;;;;;;;5.47;1.80;;;;;;;24.80;28.92;98613.63;5014422;28;20029;-73
2023/04/22 11:18:12;;;;;;;8.23;2.03;;;;;;;24.56;29.11;98607.94;4998182;28;20052;-72
2023/04/22 11:20:38;;;;;;;8.82;2.28;;;;;;;24.35;29.48;98623.19;4997748;28;20029;-72
2023/04/22 11:23:03;;;;;;;5.88;2.10;;;;;;;24.10;29.89;98609.69;5013871;28;20036;-72
2023/04/22 11:25:29;;;;;;;5.60;1.85;;;;;;;23.93;30.32;98614.63;5013948;28;20029;-73
2023/04/22 11:27:55;;;;;;;9.10;2.15;;;;;;;23.77;30.65;98607.84;4997813;28;20071;-72